Time;durP1;ratioP1;P1;durP2;ratioP2;P2;SDS_P1;SDS_P2;PMS_P1;PMS_P2;Temp;Humidity;BMP_temperature;BMP_pressure;BME280_temperature;BME280_humidity;BME280_pressure;Samples;Min_cycle;Max_cycle;Signal;HPM_P1;HPM_P2
2021/07/07 00:01:26;;;;;;;6.65;1.75;;;19.90;68.50;;;;;;5024558;28;20477;-68
2021/07/07 00:03:52;;;;;;;3.15;1.02;;;19.90;68.60;;;;;;5023290;28;20095;-68
2021/07/07 00:06:18;;;;;;;1.67;0.90;;;19.90;68.60;;;;;;5024824;28;20039;-68
2021/07/07 00:08:43;;;;;;;1.98;1.10;;;19.80;69.00;;;;;;5021891;28;20076;-68
2021/07/07 00:11:09;;;;;;;3.67;1.17;;;19.80;68.90;;;;;;5023629;28;20051;-69
2021/07/07 00:13:35;;;;;;;3.08;1.02;;;19.70;69.20;;;;;;5024154;28;20464;-69
2021/07/07 00:16:01;;;;;;;6.88;1.25;;;19.70;69.60;;;;;;5022135;28;20515;-69
2021/07/07 00:18:26;;;;;;;2.75;1.00;;;19.60;69.70;;;;;;5026012;28;20037;-69
2021/07/07 00:20:55;;;;;;;2.88;0.95;;;19.70;70.10;;;;;;5023231;28;20026;-69
2021/07/07 00:23:25;;;;;;;4.30;1.10;;;19.70;70.10;;;;;;5021937;28;20033;-69
2021/07/07 00:25:51;;;;;;;3.88;1.13;;;19.60;70.00;;;;;;5023010;28;20017;-68
2021/07/07 00:28:19;;;;;;;3.38;1.08;;;19.60;70.40;;;;;;5022886;28;20463;-68
2021/07/07 00:30:46;;;;;;;4.53;1.20;;;19.60;70.40;;;;;;5023958;28;20033;-68
2021/07/07 00:33:12;;;;;;;3.60;0.98;;;19.60;70.40;;;;;;5025002;28;20037;-69
2021/07/07 00:35:38;;;;;;;3.95;1.08;;;19.60;71.00;;;;;;5022564;28;20045;-69
2021/07/07 00:38:04;;;;;;;3.58;1.08;;;19.50;70.50;;;;;;5026045;28;20057;-69
2021/07/07 00:40:30;;;;;;;3.53;0.93;;;19.50;70.70;;;;;;5025476;28;20592;-69
2021/07/07 00:42:55;;;;;;;3.17;1.20;;;19.50;70.90;;;;;;5028635;28;20029;-69
2021/07/07 00:45:22;;;;;;;5.68;1.17;;;19.40;70.90;;;;;;5023946;28;20032;-69
2021/07/07 00:47:48;;;;;;;3.83;1.08;;;19.30;71.20;;;;;;5023722;28;20043;-69
2021/07/07 00:50:16;;;;;;;2.92;1.25;;;19.30;71.70;;;;;;5024523;28;20033;-69
2021/07/07 00:52:42;;;;;;;10.30;1.13;;;19.30;72.00;;;;;;5024922;28;20033;-70
2021/07/07 00:55:13;;;;;;;5.13;1.27;;;19.30;72.40;;;;;;5027432;28;21009;-70
2021/07/07 00:57:41;;;;;;;2.88;1.27;;;19.30;71.70;;;;;;5020807;28;20546;-69
2021/07/07 01:00:10;;;;;;;3.83;1.08;;;19.30;72.00;;;;;;5023156;28;20049;-70
2021/07/07 01:02:40;;;;;;;5.18;0.93;;;19.20;72.00;;;;;;5020936;28;20077;-70
2021/07/07 01:05:08;;;;;;;4.80;1.40;;;19.20;72.40;;;;;;5022820;28;20502;-70
2021/07/07 01:07:34;;;;;;;4.22;1.02;;;19.20;72.50;;;;;;5023023;28;20037;-70
2021/07/07 01:10:00;;;;;;;3.97;1.10;;;19.20;72.40;;;;;;5022411;28;20034;-69
2021/07/07 01:12:26;;;;;;;2.47;1.33;;;19.20;72.60;;;;;;5024126;28;20551;-70
2021/07/07 01:14:54;;;;;;;4.85;1.23;;;19.10;72.30;;;;;;5022538;28;20060;-70
2021/07/07 01:17:20;;;;;;;2.97;1.10;;;19.10;72.50;;;;;;5022130;28;20029;-70
2021/07/07 01:19:47;;;;;;;4.78;1.55;;;19.10;72.60;;;;;;5023208;28;20025;-70
2021/07/07 01:22:12;;;;;;;4.78;1.50;;;19.00;72.90;;;;;;5026243;28;20065;-70
2021/07/07 01:24:38;;;;;;;2.15;1.20;;;19.10;73.00;;;;;;5021847;28;20049;-70
2021/07/07 01:27:04;;;;;;;2.70;1.17;;;19.00;73.00;;;;;;5023019;28;20394;-69
2021/07/07 01:29:30;;;;;;;4.22;1.05;;;19.00;73.20;;;;;;5022529;28;20033;-69
2021/07/07 01:31:56;;;;;;;4.15;1.38;;;19.00;73.50;;;;;;5022856;28;20026;-69
2021/07/07 01:34:22;;;;;;;3.08;1.00;;;19.00;73.60;;;;;;5025006;28;20155;-69
2021/07/07 01:36:47;;;;;;;4.50;1.40;;;18.90;73.70;;;;;;5024197;28;20118;-68
2021/07/07 01:39:13;;;;;;;2.35;1.10;;;18.90;73.70;;;;;;5026017;28;20029;-69
2021/07/07 01:41:40;;;;;;;4.70;1.20;;;18.80;74.20;;;;;;5025223;28;20033;-67
2021/07/07 01:44:06;;;;;;;4.18;1.63;;;18.80;74.40;;;;;;5026479;28;20128;-69
2021/07/07 01:46:32;;;;;;;4.38;1.63;;;18.80;74.40;;;;;;5028522;28;20418;-68
2021/07/07 01:49:01;;;;;;;5.22;1.25;;;18.80;74.70;;;;;;5029890;28;20037;-69
2021/07/07 01:51:26;;;;;;;4.00;1.23;;;18.80;74.80;;;;;;5028344;28;20040;-69
2021/07/07 01:53:52;;;;;;;4.95;1.30;;;18.70;75.10;;;;;;5029263;28;20033;-69
2021/07/07 01:56:18;;;;;;;3.92;1.10;;;18.60;75.10;;;;;;5026749;28;20503;-68
2021/07/07 01:58:44;;;;;;;6.55;1.50;;;18.60;75.00;;;;;;5025225;28;20034;-69
2021/07/07 02:01:10;;;;;;;3.60;1.15;;;18.60;75.20;;;;;;5024636;28;20682;-70
2021/07/07 02:03:36;;;;;;;5.47;1.65;;;18.60;75.30;;;;;;5025831;28;20033;-69
2021/07/07 02:06:02;;;;;;;3.47;1.58;;;18.50;75.50;;;;;;5026892;28;20091;-69
2021/07/07 02:08:28;;;;;;;7.25;1.65;;;18.50;75.10;;;;;;5026952;28;20036;-69
2021/07/07 02:10:54;;;;;;;3.88;1.33;;;18.50;75.00;;;;;;5024123;28;20025;-69
2021/07/07 02:13:20;;;;;;;4.40;1.38;;;18.50;75.10;;;;;;5028296;28;20644;-69
2021/07/07 02:15:46;;;;;;;3.97;1.58;;;18.60;75.40;;;;;;5023529;28;20535;-69
2021/07/07 02:18:12;;;;;;;4.53;1.48;;;18.50;75.40;;;;;;5029343;28;20117;-68
2021/07/07 02:20:41;;;;;;;6.53;1.83;;;18.50;75.70;;;;;;5024237;28;20021;-69
2021/07/07 02:23:09;;;;;;;4.28;1.35;;;18.40;75.90;;;;;;5025351;28;20098;-69
2021/07/07 02:25:36;;;;;;;9.55;1.67;;;18.40;76.20;;;;;;5025881;28;20470;-68
2021/07/07 02:28:04;;;;;;;3.67;1.30;;;18.40;76.20;;;;;;5026469;28;20049;-69
2021/07/07 02:30:33;;;;;;;5.10;1.42;;;18.40;76.00;;;;;;5027813;28;20034;-67
2021/07/07 02:33:00;;;;;;;6.13;1.63;;;18.40;76.30;;;;;;5031346;28;20034;-69
2021/07/07 02:35:30;;;;;;;2.78;1.70;;;18.40;76.40;;;;;;5027779;28;20045;-68
2021/07/07 02:37:56;;;;;;;2.50;1.17;;;18.30;76.70;;;;;;5025927;28;20037;-68
2021/07/07 02:40:25;;;;;;;3.75;1.67;;;18.30;76.80;;;;;;5025373;28;20025;-69
2021/07/07 02:42:52;;;;;;;4.00;1.40;;;18.30;77.30;;;;;;5026637;28;20099;-69
2021/07/07 02:45:18;;;;;;;4.10;1.65;;;18.20;77.50;;;;;;5027973;28;20053;-69
2021/07/07 02:47:46;;;;;;;3.58;1.70;;;18.20;77.80;;;;;;5025213;28;20061;-70
2021/07/07 02:50:14;;;;;;;4.57;1.77;;;18.20;77.80;;;;;;5019734;28;20045;-69
2021/07/07 02:52:42;;;;;;;4.60;1.70;;;18.20;77.90;;;;;;5024170;28;20056;-69
2021/07/07 02:55:13;;;;;;;3.65;1.25;;;18.20;77.80;;;;;;5026889;28;20071;-69
2021/07/07 03:00:36;;;;;;;4.90;1.50;;;18.20;78.20;;;;;;5024642;28;20464;-69
2021/07/07 03:03:08;;;;;;;3.17;1.13;;;18.20;78.30;;;;;;5022273;28;20038;-68
2021/07/07 03:05:36;;;;;;;3.50;1.40;;;18.20;78.40;;;;;;5024193;28;20044;-69
2021/07/07 03:08:02;;;;;;;3.15;1.42;;;18.20;78.00;;;;;;5025934;28;20087;-68
2021/07/07 03:10:28;;;;;;;4.53;1.45;;;18.20;78.10;;;;;;5022528;28;20041;-69
2021/07/07 03:12:55;;;;;;;4.00;1.20;;;18.20;78.20;;;;;;5026768;28;20098;-68
2021/07/07 03:15:21;;;;;;;5.97;1.67;;;18.20;78.10;;;;;;5025916;28;20056;-69
2021/07/07 03:17:47;;;;;;;1.63;1.17;;;18.20;78.10;;;;;;5022184;28;20037;-68
2021/07/07 03:20:13;;;;;;;5.15;1.45;;;18.20;78.30;;;;;;5023912;28;20033;-68
2021/07/07 03:22:39;;;;;;;3.90;1.20;;;18.20;78.70;;;;;;5024349;28;20083;-67
2021/07/07 03:25:06;;;;;;;5.10;1.60;;;18.20;78.80;;;;;;5024945;28;20036;-68
2021/07/07 03:27:32;;;;;;;2.85;1.50;;;18.20;78.80;;;;;;5025395;28;20041;-68
2021/07/07 03:29:58;;;;;;;2.28;1.50;;;18.10;79.20;;;;;;5010180;28;20094;-70
2021/07/07 03:32:23;;;;;;;3.70;1.30;;;18.10;79.00;;;;;;5023173;28;20057;-69
2021/07/07 03:34:49;;;;;;;4.70;1.40;;;18.10;78.70;;;;;;5025273;28;20090;-68
2021/07/07 03:37:15;;;;;;;4.03;1.27;;;18.20;78.80;;;;;;5024529;28;20037;-69
2021/07/07 03:39:40;;;;;;;5.78;1.45;;;18.10;79.10;;;;;;5025935;28;20091;-68
2021/07/07 03:42:06;;;;;;;3.45;1.17;;;18.10;78.90;;;;;;5023949;28;20352;-69
2021/07/07 03:44:33;;;;;;;2.70;1.23;;;18.10;79.20;;;;;;5024499;28;20068;-69
2021/07/07 03:46:58;;;;;;;2.92;1.27;;;18.20;79.30;;;;;;5026790;28;20037;-69
2021/07/07 03:49:24;;;;;;;3.92;1.30;;;18.20;79.20;;;;;;5025718;28;20471;-69
2021/07/07 03:51:50;;;;;;;3.33;1.15;;;18.20;79.30;;;;;;5024625;28;20029;-69
2021/07/07 03:54:15;;;;;;;2.00;1.40;;;18.20;79.60;;;;;;5022262;28;20049;-68
2021/07/07 03:56:41;;;;;;;4.28;1.55;;;18.10;79.90;;;;;;5026071;28;20051;-69
2021/07/07 03:59:07;;;;;;;3.20;1.20;;;18.10;80.10;;;;;;5010757;28;20018;-69
2021/07/07 04:01:32;;;;;;;3.22;1.42;;;18.10;79.80;;;;;;5020419;28;20349;-69
2021/07/07 04:03:58;;;;;;;2.75;1.10;;;18.10;79.70;;;;;;5020579;28;20031;-67
2021/07/07 04:06:24;;;;;;;3.85;1.42;;;18.10;79.60;;;;;;5025003;28;20037;-67
2021/07/07 04:08:52;;;;;;;3.17;1.10;;;18.10;79.80;;;;;;5022816;28;20573;-68
2021/07/07 04:11:18;;;;;;;4.20;1.48;;;18.10;79.80;;;;;;5011048;28;20033;-69
2021/07/07 04:13:43;;;;;;;5.47;1.48;;;18.10;79.70;;;;;;5022674;28;20128;-68
2021/07/07 04:16:09;;;;;;;2.63;1.33;;;18.20;79.80;;;;;;5018257;28;20112;-68
2021/07/07 04:18:35;;;;;;;3.65;1.20;;;18.20;79.80;;;;;;5017168;28;20056;-68
2021/07/07 04:21:00;;;;;;;4.63;1.50;;;18.20;79.80;;;;;;5015851;28;20033;-67
2021/07/07 04:23:26;;;;;;;4.70;1.52;;;18.20;79.70;;;;;;5019316;28;20075;-68
2021/07/07 04:25:51;;;;;;;4.30;1.30;;;18.20;80.00;;;;;;5018304;28;20112;-69
2021/07/07 04:28:17;;;;;;;4.97;1.33;;;18.30;79.60;;;;;;5018735;28;20847;-68
2021/07/07 04:30:43;;;;;;;4.57;1.45;;;18.30;79.40;;;;;;5018388;28;20041;-69
2021/07/07 04:33:08;;;;;;;4.82;1.65;;;18.30;79.40;;;;;;5018102;28;20037;-68
2021/07/07 04:35:34;;;;;;;7.13;1.98;;;18.30;79.30;;;;;;5025491;28;20033;-68
2021/07/07 04:38:00;;;;;;;5.18;1.83;;;18.30;79.40;;;;;;5022269;28;20084;-67
2021/07/07 04:40:26;;;;;;;5.72;1.60;;;18.30;79.80;;;;;;5021158;28;20105;-67
2021/07/07 04:42:53;;;;;;;3.63;1.90;;;18.30;79.70;;;;;;5021344;28;20029;-68
2021/07/07 04:45:19;;;;;;;7.43;2.20;;;18.40;78.90;;;;;;5019872;28;20075;-68
2021/07/07 04:47:45;;;;;;;10.43;2.00;;;18.40;78.90;;;;;;5021133;28;20522;-67
2021/07/07 04:50:13;;;;;;;6.18;2.00;;;18.40;79.10;;;;;;5021364;28;20034;-69
2021/07/07 04:52:39;;;;;;;6.38;1.70;;;18.40;78.70;;;;;;5024522;28;20953;-69
2021/07/07 04:55:07;;;;;;;7.88;1.98;;;18.40;78.80;;;;;;5017659;28;20052;-68
2021/07/07 04:57:40;;;;;;;11.20;2.33;;;18.40;78.70;;;;;;5022164;28;20034;-68
2021/07/07 05:00:12;;;;;;;5.63;2.10;;;18.40;79.20;;;;;;5022827;28;20093;-68
2021/07/07 05:02:39;;;;;;;4.32;1.80;;;18.40;78.80;;;;;;5020623;28;20072;-69
2021/07/07 05:05:09;;;;;;;3.25;1.50;;;18.40;78.70;;;;;;5019917;28;20017;-69
2021/07/07 05:07:36;;;;;;;5.68;1.52;;;18.50;78.60;;;;;;5022185;28;20052;-69
2021/07/07 05:10:04;;;;;;;5.97;1.65;;;18.50;78.50;;;;;;5019939;28;20029;-70
2021/07/07 05:12:31;;;;;;;5.60;1.30;;;18.50;78.30;;;;;;5021285;28;20036;-68
2021/07/07 05:14:58;;;;;;;4.93;1.30;;;18.50;78.70;;;;;;5024173;28;20460;-68
2021/07/07 05:17:24;;;;;;;4.72;1.60;;;18.60;78.50;;;;;;5022721;28;20040;-67
2021/07/07 05:19:51;;;;;;;3.38;1.30;;;18.60;78.20;;;;;;5024364;28;20396;-68
2021/07/07 05:22:17;;;;;;;3.90;1.60;;;18.60;78.30;;;;;;5024983;28;20063;-68
2021/07/07 05:24:44;;;;;;;5.05;1.45;;;18.60;78.90;;;;;;5025103;28;20033;-67
2021/07/07 05:27:10;;;;;;;4.18;1.55;;;18.60;78.50;;;;;;5023555;28;20037;-67
2021/07/07 05:29:36;;;;;;;5.90;1.60;;;18.70;78.50;;;;;;5022011;28;20499;-70
2021/07/07 05:32:02;;;;;;;4.82;1.63;;;18.60;78.80;;;;;;5024684;28;20087;-68
2021/07/07 05:34:28;;;;;;;5.65;1.55;;;18.60;78.70;;;;;;5024447;28;20044;-69
2021/07/07 05:36:53;;;;;;;6.88;1.70;;;18.60;78.40;;;;;;5024791;28;20035;-68
2021/07/07 05:39:19;;;;;;;12.15;2.72;;;18.60;78.30;;;;;;5026566;28;20048;-71
2021/07/07 05:41:45;;;;;;;6.72;1.83;;;19.00;78.80;;;;;;5028041;28;20096;-72
2021/07/07 05:44:10;;;;;;;15.27;1.95;;;19.50;76.10;;;;;;5024845;28;20506;-70
2021/07/07 05:46:36;;;;;;;4.25;1.25;;;20.00;75.50;;;;;;5025298;28;20048;-67
2021/07/07 05:49:02;;;;;;;5.65;1.17;;;20.40;72.80;;;;;;5023703;28;20040;-67
2021/07/07 05:51:28;;;;;;;2.55;1.30;;;20.30;72.50;;;;;;5022022;28;20036;-65
2021/07/07 05:53:54;;;;;;;6.53;1.55;;;20.10;73.20;;;;;;5022745;28;20116;-66
2021/07/07 05:56:19;;;;;;;6.65;1.85;;;19.90;73.90;;;;;;5024781;28;20068;-66
2021/07/07 05:58:46;;;;;;;7.55;1.58;;;19.70;74.40;;;;;;5023994;28;20025;-66
2021/07/07 06:01:13;;;;;;;3.33;1.60;;;19.60;74.80;;;;;;5024154;28;20039;-65
2021/07/07 06:03:39;;;;;;;3.83;1.10;;;19.40;75.50;;;;;;5021034;28;20053;-68
2021/07/07 06:06:05;;;;;;;5.70;1.35;;;19.40;76.40;;;;;;5022477;28;20453;-68
2021/07/07 06:08:31;;;;;;;5.47;1.23;;;19.40;76.00;;;;;;5024938;28;20060;-68
2021/07/07 06:10:57;;;;;;;2.72;1.48;;;19.30;76.10;;;;;;5021329;28;20054;-68
2021/07/07 06:13:23;;;;;;;1.38;0.90;;;19.20;76.70;;;;;;5011053;28;20065;-68
2021/07/07 06:15:49;;;;;;;2.60;1.00;;;19.10;77.10;;;;;;5022527;28;20034;-67
2021/07/07 06:18:14;;;;;;;8.13;1.63;;;19.10;77.70;;;;;;5023703;28;20037;-66
2021/07/07 06:20:40;;;;;;;4.47;1.42;;;19.10;78.10;;;;;;5021651;28;20022;-66
2021/07/07 06:23:06;;;;;;;3.38;0.95;;;19.10;78.00;;;;;;5023592;28;20025;-66
2021/07/07 06:25:32;;;;;;;2.33;0.95;;;19.10;78.20;;;;;;5023217;28;20037;-67
2021/07/07 06:27:58;;;;;;;5.25;1.17;;;19.10;78.50;;;;;;5021954;28;20136;-66
2021/07/07 06:30:25;;;;;;;5.43;1.70;;;19.10;78.60;;;;;;5023356;28;20029;-68
2021/07/07 06:32:52;;;;;;;2.67;1.10;;;19.10;78.70;;;;;;5023840;28;20041;-72
2021/07/07 06:35:19;;;;;;;4.55;1.40;;;19.20;78.80;;;;;;5022628;28;20025;-70
2021/07/07 06:37:47;;;;;;;5.10;1.52;;;19.20;78.10;;;;;;5021936;28;20022;-69
2021/07/07 06:40:13;;;;;;;3.42;1.48;;;19.30;78.10;;;;;;5022365;28;20017;-69
2021/07/07 06:42:39;;;;;;;2.90;1.35;;;19.40;77.80;;;;;;5011615;28;20034;-69
2021/07/07 06:45:07;;;;;;;4.28;1.30;;;19.50;76.90;;;;;;5023898;28;20430;-69
2021/07/07 06:47:33;;;;;;;3.25;1.17;;;19.50;76.90;;;;;;5010663;28;20044;-69
2021/07/07 06:49:59;;;;;;;4.80;1.67;;;19.50;76.20;;;;;;5024847;28;20036;-69
2021/07/07 06:52:26;;;;;;;2.85;1.20;;;19.60;75.60;;;;;;5027313;28;20060;-69
2021/07/07 06:54:53;;;;;;;3.72;1.50;;;19.70;75.80;;;;;;5021990;28;20088;-70
2021/07/07 06:57:18;;;;;;;3.35;1.10;;;19.80;75.00;;;;;;5023864;28;20026;-70
2021/07/07 06:59:44;;;;;;;5.50;1.27;;;19.80;75.40;;;;;;5023145;28;20026;-68
2021/07/07 07:02:10;;;;;;;3.92;1.60;;;19.90;75.70;;;;;;5021004;28;20017;-69
2021/07/07 07:04:36;;;;;;;5.00;1.30;;;19.90;74.80;;;;;;5021816;28;20026;-69
2021/07/07 07:07:02;;;;;;;5.95;1.38;;;19.90;73.80;;;;;;5026195;28;20583;-68
2021/07/07 07:09:28;;;;;;;7.15;1.85;;;19.90;74.70;;;;;;5028566;28;20488;-69
2021/07/07 07:11:54;;;;;;;3.55;1.38;;;19.90;73.90;;;;;;5024593;28;20037;-70
2021/07/07 07:14:20;;;;;;;8.50;1.73;;;19.90;73.60;;;;;;5022728;28;20044;-69
2021/07/07 07:16:46;;;;;;;3.58;1.40;;;19.80;74.40;;;;;;5018671;28;20033;-69
2021/07/07 07:19:14;;;;;;;5.85;1.83;;;19.80;74.00;;;;;;5023034;28;20033;-72
2021/07/07 07:21:40;;;;;;;2.70;1.27;;;19.70;73.70;;;;;;5021308;28;20096;-73
2021/07/07 07:24:06;;;;;;;4.28;1.65;;;19.80;73.90;;;;;;5026784;28;20612;-70
2021/07/07 07:26:33;;;;;;;5.05;1.48;;;19.90;75.40;;;;;;5026346;28;20033;-70
2021/07/07 07:29:00;;;;;;;5.30;1.33;;;20.00;75.60;;;;;;5018864;28;20112;-74
2021/07/07 07:31:26;;;;;;;3.38;1.40;;;20.10;74.00;;;;;;5017933;28;20057;-77
2021/07/07 07:33:52;;;;;;;5.43;1.52;;;20.10;74.70;;;;;;5023657;28;20030;-71
2021/07/07 07:36:19;;;;;;;2.70;1.35;;;20.10;71.80;;;;;;5019670;28;20384;-71
2021/07/07 07:38:49;;;;;;;4.70;1.77;;;20.10;72.40;;;;;;5024920;28;20075;-71
2021/07/07 07:41:15;;;;;;;3.50;1.25;;;20.20;72.90;;;;;;5025574;28;20032;-70
2021/07/07 07:43:44;;;;;;;4.63;1.30;;;20.30;72.80;;;;;;5023539;28;20091;-72
2021/07/07 07:46:10;;;;;;;5.85;1.58;;;20.40;70.80;;;;;;5022942;28;20025;-72
2021/07/07 07:48:36;;;;;;;3.55;1.20;;;20.40;71.80;;;;;;5021524;28;20107;-72
2021/07/07 07:51:03;;;;;;;2.97;1.25;;;20.40;70.40;;;;;;5020223;28;20547;-72
2021/07/07 07:53:29;;;;;;;3.10;1.25;;;20.40;69.70;;;;;;5019078;28;20041;-72
2021/07/07 07:55:55;;;;;;;4.60;1.27;;;20.30;70.80;;;;;;5021231;28;20021;-72
2021/07/07 07:58:21;;;;;;;4.72;1.48;;;20.40;70.40;;;;;;5020271;28;20033;-72
2021/07/07 08:00:48;;;;;;;3.78;1.02;;;20.50;70.80;;;;;;5019097;28;20067;-72
2021/07/07 08:03:15;;;;;;;3.53;1.08;;;20.50;70.80;;;;;;5018929;28;20026;-72
2021/07/07 08:05:42;;;;;;;3.03;1.00;;;20.50;71.00;;;;;;5022163;28;20550;-72
2021/07/07 08:08:09;;;;;;;4.15;1.20;;;20.60;71.80;;;;;;5021219;28;20156;-71
2021/07/07 08:10:35;;;;;;;3.35;1.15;;;20.60;70.60;;;;;;5020096;28;20033;-72
2021/07/07 08:13:02;;;;;;;3.15;1.40;;;20.70;68.80;;;;;;5021202;28;20034;-72
2021/07/07 08:15:28;;;;;;;3.90;1.20;;;20.70;68.70;;;;;;5019691;28;20028;-72
2021/07/07 08:17:56;;;;;;;2.15;0.90;;;20.80;67.20;;;;;;5021366;28;20188;-71
2021/07/07 08:20:22;;;;;;;2.38;1.00;;;20.70;68.00;;;;;;5022287;28;20507;-72
2021/07/07 08:22:49;;;;;;;2.20;0.90;;;20.80;68.60;;;;;;5020150;28;20030;-71
2021/07/07 08:25:16;;;;;;;2.13;0.90;;;20.80;67.10;;;;;;5021446;28;20399;-71
2021/07/07 08:27:42;;;;;;;6.93;1.30;;;20.90;68.50;;;;;;5019218;28;20537;-71
2021/07/07 08:30:10;;;;;;;2.88;1.00;;;21.00;65.60;;;;;;5020328;28;20022;-71
2021/07/07 08:32:36;;;;;;;3.25;0.85;;;21.00;66.50;;;;;;5020534;28;20029;-72
2021/07/07 08:35:03;;;;;;;4.85;1.30;;;21.10;66.00;;;;;;5020416;28;20803;-71
2021/07/07 08:37:28;;;;;;;1.10;0.65;;;21.20;66.50;;;;;;5006038;28;20041;-71
2021/07/07 08:39:54;;;;;;;8.95;1.20;;;21.20;67.70;;;;;;5021534;28;20018;-71
2021/07/07 08:42:20;;;;;;;3.88;1.27;;;21.30;65.60;;;;;;5021548;28;20032;-70
2021/07/07 08:44:46;;;;;;;2.83;1.00;;;21.40;66.20;;;;;;5018363;28;20037;-71
2021/07/07 08:47:12;;;;;;;2.22;0.70;;;21.40;65.40;;;;;;5024876;28;20534;-68
2021/07/07 08:49:38;;;;;;;4.28;1.15;;;21.40;66.20;;;;;;5021105;28;20030;-69
2021/07/07 08:52:04;;;;;;;4.18;0.82;;;21.50;67.10;;;;;;5022798;28;20415;-70
2021/07/07 08:54:31;;;;;;;1.85;0.70;;;21.50;64.80;;;;;;5021337;28;20065;-70
2021/07/07 08:57:04;;;;;;;4.60;1.67;;;21.60;66.20;;;;;;5021017;28;20034;-70
2021/07/07 08:59:30;;;;;;;4.88;1.00;;;21.60;66.40;;;;;;5019420;28;20022;-71
2021/07/07 09:02:03;;;;;;;4.47;1.17;;;21.60;66.10;;;;;;5022100;28;20040;-70
2021/07/07 09:04:32;;;;;;;2.00;0.90;;;21.70;66.40;;;;;;5019719;28;20034;-70
2021/07/07 09:07:03;;;;;;;6.15;1.50;;;21.70;67.00;;;;;;5020681;28;20387;-71
2021/07/07 09:09:45;;;;;;;;;;;21.70;66.20;;;;;;5019947;28;20044;-71
2021/07/07 09:12:12;;;;;;;3.33;1.23;;;21.80;66.70;;;;;;5017575;28;19936;-70
2021/07/07 09:14:38;;;;;;;2.42;1.05;;;21.90;66.70;;;;;;5018431;28;20029;-71
2021/07/07 09:17:13;;;;;;;2.92;1.00;;;22.00;67.00;;;;;;5020245;28;20570;-71
2021/07/07 09:19:39;;;;;;;10.50;1.40;;;22.10;63.80;;;;;;5020503;28;20022;-69
2021/07/07 09:22:08;;;;;;;4.78;1.30;;;22.10;63.90;;;;;;5020511;28;20025;-70
2021/07/07 09:24:36;;;;;;;3.22;1.10;;;22.20;63.40;;;;;;5019303;28;20048;-71
2021/07/07 09:27:07;;;;;;;6.68;1.60;;;22.30;64.30;;;;;;5023733;28;20040;-70
2021/07/07 09:29:39;;;;;;;3.28;1.08;;;22.40;62.80;;;;;;5022515;28;20022;-66
2021/07/07 09:32:18;;;;;;;4.35;1.20;;;22.40;64.30;;;;;;5016992;28;20042;-66
2021/07/07 09:34:47;;;;;;;5.72;1.30;;;22.60;62.10;;;;;;5016521;28;20036;-68
2021/07/07 09:37:25;;;;;;;6.75;1.45;;;22.60;62.60;;;;;;5017789;28;20029;-69
2021/07/07 09:39:54;;;;;;;3.67;1.35;;;22.70;61.20;;;;;;5020894;28;20029;-68
2021/07/07 09:42:31;;;;;;;7.13;1.30;;;22.70;61.80;;;;;;5019160;28;20048;-68
2021/07/07 09:44:59;;;;;;;4.80;1.20;;;22.70;61.40;;;;;;5017941;28;20026;-68
2021/07/07 09:47:27;;;;;;;5.05;1.10;;;22.80;62.20;;;;;;5017876;28;20041;-69
2021/07/07 09:49:53;;;;;;;3.60;0.93;;;22.90;60.00;;;;;;5019915;28;20053;-68
2021/07/07 09:52:22;;;;;;;3.40;1.23;;;23.00;59.20;;;;;;5018290;28;20108;-69
2021/07/07 09:54:48;;;;;;;2.88;0.90;;;23.00;59.40;;;;;;5020324;28;20033;-69
2021/07/07 09:57:15;;;;;;;2.80;1.02;;;22.90;56.60;;;;;;5019976;28;20095;-69
2021/07/07 09:59:41;;;;;;;3.13;1.00;;;22.90;57.90;;;;;;5021806;28;20472;-68
2021/07/07 10:02:07;;;;;;;3.88;1.42;;;22.90;58.70;;;;;;5024666;28;20014;-68
2021/07/07 10:04:36;;;;;;;3.47;1.00;;;22.80;59.60;;;;;;5021658;28;20030;-68
2021/07/07 10:07:02;;;;;;;3.88;1.30;;;22.90;58.90;;;;;;5026132;28;20069;-67
2021/07/07 10:09:29;;;;;;;4.40;1.38;;;23.00;59.60;;;;;;5023120;28;20030;-67
2021/07/07 10:11:56;;;;;;;2.80;1.08;;;23.30;57.20;;;;;;5022394;28;20063;-69
2021/07/07 10:14:23;;;;;;;4.10;1.25;;;23.50;55.00;;;;;;5023937;28;20041;-67
2021/07/07 10:16:50;;;;;;;3.15;1.10;;;23.60;54.90;;;;;;5023242;28;20033;-69
2021/07/07 10:19:17;;;;;;;4.07;1.00;;;23.60;53.70;;;;;;5023007;28;20033;-68
2021/07/07 10:21:43;;;;;;;5.93;1.30;;;23.60;53.50;;;;;;5022152;28;20044;-68
2021/07/07 10:24:10;;;;;;;2.20;1.02;;;23.60;54.00;;;;;;5025005;28;20030;-68
2021/07/07 10:26:37;;;;;;;6.32;1.50;;;23.70;55.50;;;;;;5022294;28;20476;-69
2021/07/07 10:29:04;;;;;;;3.42;1.20;;;23.80;54.40;;;;;;5022825;28;20030;-67
2021/07/07 10:31:57;;;;;;;9.30;1.35;;;23.90;55.40;;;;;;5023204;28;20080;-68
2021/07/07 10:34:25;;;;;;;4.55;1.30;;;24.00;54.30;;;;;;5022131;28;20099;-67
2021/07/07 10:36:53;;;;;;;3.75;1.10;;;24.10;55.10;;;;;;5022942;28;20044;-66
2021/07/07 10:39:18;;;;;;;3.08;1.13;;;24.20;55.60;;;;;;5022246;28;20060;-67
2021/07/07 10:41:45;;;;;;;4.65;1.08;;;24.20;53.10;;;;;;5021030;28;20030;-67
2021/07/07 10:44:23;;;;;;;3.63;1.50;;;24.20;50.90;;;;;;5020343;28;20156;-68
2021/07/07 10:47:00;;;;;;;5.22;1.20;;;24.20;54.10;;;;;;5021641;28;20037;-68
2021/07/07 10:49:26;;;;;;;3.40;0.93;;;24.20;53.30;;;;;;5023788;28;20033;-66
2021/07/07 10:51:54;;;;;;;3.92;1.25;;;24.00;53.60;;;;;;5025381;28;20030;-67
2021/07/07 10:54:22;;;;;;;5.22;1.10;;;24.10;53.40;;;;;;5026660;28;20112;-67
2021/07/07 10:56:49;;;;;;;4.10;1.52;;;23.90;54.00;;;;;;5026029;28;20037;-67
2021/07/07 10:59:36;;;;;;;2.50;0.95;;;23.90;55.80;;;;;;5026929;28;20021;-68
2021/07/07 11:02:09;;;;;;;3.08;1.30;;;23.90;55.40;;;;;;5022969;28;20659;-68
2021/07/07 11:04:35;;;;;;;2.67;1.38;;;23.90;55.70;;;;;;5027408;28;20037;-68
2021/07/07 11:07:37;;;;;;;7.88;1.55;;;24.00;55.70;;;;;;5022433;28;20979;-67
2021/07/07 11:10:13;;;;;;;2.90;1.10;;;23.90;52.60;;;;;;5025297;28;20038;-68
2021/07/07 11:12:41;;;;;;;5.70;1.55;;;23.90;55.50;;;;;;5023479;28;20037;-68
2021/07/07 11:15:13;;;;;;;3.38;1.50;;;24.00;55.80;;;;;;5024740;28;20055;-68
2021/07/07 11:17:44;;;;;;;5.70;1.42;;;24.10;56.80;;;;;;5026154;28;20105;-68
2021/07/07 11:20:21;;;;;;;4.13;1.27;;;24.20;52.20;;;;;;5021590;28;20026;-67
2021/07/07 11:23:08;;;;;;;4.35;1.52;;;24.40;52.40;;;;;;5022125;28;20078;-68
2021/07/07 11:25:37;;;;;;;6.57;2.05;;;24.50;53.00;;;;;;5021998;28;20025;-68
2021/07/07 11:28:11;;;;;;;6.88;2.30;;;24.60;54.50;;;;;;5023026;28;20157;-67
2021/07/07 11:30:37;;;;;;;4.47;2.08;;;25.00;53.20;;;;;;5024628;28;20446;-68
2021/07/07 11:33:05;;;;;;;7.07;2.22;;;25.40;57.30;;;;;;5024218;28;20026;-68
2021/07/07 11:35:35;;;;;;;4.00;1.40;;;26.50;57.50;;;;;;5022553;28;20104;-69
2021/07/07 11:38:04;;;;;;;3.75;1.25;;;28.20;48.40;;;;;;5023357;28;20454;-69
2021/07/07 11:40:31;;;;;;;3.88;1.20;;;30.30;43.50;;;;;;5020768;28;20051;-69
2021/07/07 11:43:09;;;;;;;2.85;1.20;;;30.60;39.50;;;;;;5026167;28;20043;-68
2021/07/07 11:45:43;;;;;;;3.65;1.20;;;30.70;40.20;;;;;;5022704;28;20030;-68
2021/07/07 11:48:16;;;;;;;3.55;1.13;;;32.50;38.70;;;;;;5022001;28;20097;-69
2021/07/07 11:50:50;;;;;;;4.22;1.33;;;34.80;34.30;;;;;;5023776;28;20428;-68
2021/07/07 11:53:16;;;;;;;1.92;1.10;;;36.70;32.70;;;;;;5013562;28;20567;-69
2021/07/07 11:56:18;;;;;;;3.28;1.15;;;37.90;29.00;;;;;;5025131;28;20644;-66
2021/07/07 11:58:47;;;;;;;3.70;1.45;;;38.90;28.80;;;;;;5021998;28;20061;-69
2021/07/07 12:01:20;;;;;;;4.78;1.50;;;38.90;27.10;;;;;;5023137;28;20156;-68
2021/07/07 12:03:53;;;;;;;1.63;1.00;;;37.10;28.50;;;;;;5021590;28;20475;-69
2021/07/07 12:06:47;;;;;;;5.88;1.30;;;35.20;31.70;;;;;;5024063;28;20051;-68
2021/07/07 12:09:19;;;;;;;1.73;1.00;;;34.80;31.50;;;;;;5021240;28;20116;-68
2021/07/07 12:11:52;;;;;;;3.25;1.60;;;34.10;31.60;;;;;;5022736;28;20086;-67
2021/07/07 12:14:18;;;;;;;3.67;1.15;;;33.40;29.60;;;;;;5024693;28;20471;-68
2021/07/07 12:16:45;;;;;;;4.43;1.15;;;33.70;31.10;;;;;;5023129;28;20033;-67
2021/07/07 12:19:16;;;;;;;3.38;1.17;;;34.50;30.00;;;;;;5020639;28;20483;-68
2021/07/07 12:22:03;;;;;;;4.60;1.35;;;34.70;30.50;;;;;;5022987;28;20025;-68
2021/07/07 12:24:39;;;;;;;6.15;1.17;;;34.90;30.60;;;;;;5015071;28;20384;-68
2021/07/07 12:27:11;;;;;;;4.80;1.10;;;35.20;30.40;;;;;;5015610;28;20120;-67
2021/07/07 12:29:39;;;;;;;2.55;1.02;;;34.70;30.10;;;;;;5015257;28;20048;-67
2021/07/07 12:32:11;;;;;;;3.42;1.35;;;33.20;31.70;;;;;;5018868;28;20061;-68
2021/07/07 12:34:42;;;;;;;2.80;0.95;;;31.70;34.80;;;;;;5016793;28;20064;-67
2021/07/07 12:37:13;;;;;;;4.20;1.27;;;30.40;36.60;;;;;;5013535;28;20034;-67
2021/07/07 12:39:49;;;;;;;3.08;1.00;;;29.50;38.20;;;;;;5024313;28;20823;-68
2021/07/07 12:42:27;;;;;;;3.83;1.63;;;28.90;39.30;;;;;;5021931;28;20117;-68
2021/07/07 12:45:06;;;;;;;4.85;1.30;;;28.40;39.80;;;;;;5014674;28;20402;-68
2021/07/07 12:47:32;;;;;;;4.20;1.27;;;28.50;40.00;;;;;;5022647;28;20310;-67
2021/07/07 12:49:57;;;;;;;5.25;1.30;;;28.80;39.80;;;;;;5020355;28;20104;-68
2021/07/07 12:52:30;;;;;;;4.07;1.00;;;29.00;40.10;;;;;;5038825;23;20290;-68
2021/07/07 12:55:22;;;;;;;2.72;0.95;;;29.20;41.10;;;;;;5028922;28;20067;-70